sensor_id;sensor_type;location;lat;lon;timestamp;P1;durP1;ratioP1;P2;durP2;ratioP2
48795;SDS011;34607;48.520;-1.330;2023-11-21T08:25:57;8.15;;;2.03;;
48795;SDS011;34607;48.520;-1.330;2023-11-21T08:28:24;4.93;;;1.70;;
48795;SDS011;34607;48.520;-1.330;2023-11-21T08:30:52;8.60;;;2.65;;
48795;SDS011;34607;48.520;-1.330;2023-11-21T08:33:19;8.23;;;1.98;;
48795;SDS011;34607;48.520;-1.330;2023-11-21T08:35:46;5.82;;;2.50;;
48795;SDS011;34607;48.520;-1.330;2023-11-21T08:38:13;6.10;;;2.38;;
48795;SDS011;34607;48.520;-1.330;2023-11-21T08:40:40;10.85;;;4.13;;
48795;SDS011;34607;48.520;-1.330;2023-11-21T08:43:08;6.50;;;3.40;;
48795;SDS011;34607;48.520;-1.330;2023-11-21T08:45:37;9.02;;;4.60;;
48795;SDS011;34607;48.520;-1.330;2023-11-21T08:48:04;6.63;;;3.35;;
48795;SDS011;34607;48.520;-1.330;2023-11-21T08:50:31;4.97;;;2.80;;
48795;SDS011;34607;48.520;-1.330;2023-11-21T08:52:59;4.38;;;2.75;;
48795;SDS011;34607;48.520;-1.330;2023-11-21T08:55:26;3.83;;;2.28;;
48795;SDS011;34607;48.520;-1.330;2023-11-21T08:57:53;6.72;;;2.55;;
48795;SDS011;34607;48.520;-1.330;2023-11-21T09:00:22;8.20;;;3.50;;
48795;SDS011;34607;48.520;-1.330;2023-11-21T09:02:49;8.77;;;4.07;;
48795;SDS011;34607;48.520;-1.330;2023-11-21T09:05:16;4.70;;;3.38;;
48795;SDS011;34607;48.520;-1.330;2023-11-21T09:07:44;5.45;;;4.55;;
48795;SDS011;34607;48.520;-1.330;2023-11-21T09:10:14;6.90;;;4.78;;
48795;SDS011;34607;48.520;-1.330;2023-11-21T09:12:41;14.68;;;5.75;;
48795;SDS011;34607;48.520;-1.330;2023-11-21T09:15:08;6.57;;;3.67;;
48795;SDS011;34607;48.520;-1.330;2023-11-21T09:17:38;9.25;;;5.40;;
48795;SDS011;34607;48.520;-1.330;2023-11-21T09:20:06;12.68;;;5.13;;
48795;SDS011;34607;48.520;-1.330;2023-11-21T09:22:35;7.28;;;3.80;;
48795;SDS011;34607;48.520;-1.330;2023-11-21T09:25:02;12.45;;;4.35;;
48795;SDS011;34607;48.520;-1.330;2023-11-21T09:27:31;8.00;;;4.07;;
48795;SDS011;34607;48.520;-1.330;2023-11-21T09:29:58;9.00;;;4.05;;
48795;SDS011;34607;48.520;-1.330;2023-11-21T09:32:25;7.40;;;4.00;;
48795;SDS011;34607;48.520;-1.330;2023-11-21T09:34:53;9.32;;;3.70;;
48795;SDS011;34607;48.520;-1.330;2023-11-21T09:37:23;5.68;;;4.03;;
48795;SDS011;34607;48.520;-1.330;2023-11-21T09:39:52;6.30;;;4.10;;
48795;SDS011;34607;48.520;-1.330;2023-11-21T09:42:21;5.95;;;4.45;;
48795;SDS011;34607;48.520;-1.330;2023-11-21T09:44:54;6.72;;;3.45;;
48795;SDS011;34607;48.520;-1.330;2023-11-21T09:47:30;6.80;;;4.50;;
48795;SDS011;34607;48.520;-1.330;2023-11-21T09:50:00;7.57;;;5.18;;
48795;SDS011;34607;48.520;-1.330;2023-11-21T09:52:28;7.45;;;4.78;;
48795;SDS011;34607;48.520;-1.330;2023-11-21T09:54:58;5.28;;;3.80;;
48795;SDS011;34607;48.520;-1.330;2023-11-21T09:57:26;10.80;;;5.00;;
48795;SDS011;34607;48.520;-1.330;2023-11-21T09:59:54;6.18;;;3.85;;
48795;SDS011;34607;48.520;-1.330;2023-11-21T10:02:24;9.50;;;5.05;;
48795;SDS011;34607;48.520;-1.330;2023-11-21T10:04:53;5.10;;;4.50;;
48795;SDS011;34607;48.520;-1.330;2023-11-21T10:07:23;5.88;;;4.47;;
48795;SDS011;34607;48.520;-1.330;2023-11-21T10:09:51;6.97;;;3.58;;
48795;SDS011;34607;48.520;-1.330;2023-11-21T10:12:19;6.53;;;3.92;;
48795;SDS011;34607;48.520;-1.330;2023-11-21T10:14:47;6.80;;;3.53;;
48795;SDS011;34607;48.520;-1.330;2023-11-21T10:17:18;6.43;;;3.33;;
48795;SDS011;34607;48.520;-1.330;2023-11-21T10:19:46;7.22;;;3.15;;
48795;SDS011;34607;48.520;-1.330;2023-11-21T10:22:14;5.18;;;3.10;;
48795;SDS011;34607;48.520;-1.330;2023-11-21T10:24:44;5.90;;;3.22;;
48795;SDS011;34607;48.520;-1.330;2023-11-21T10:27:11;3.70;;;3.05;;
48795;SDS011;34607;48.520;-1.330;2023-11-21T10:29:39;4.97;;;3.10;;
48795;SDS011;34607;48.520;-1.330;2023-11-21T10:32:07;8.18;;;4.40;;
48795;SDS011;34607;48.520;-1.330;2023-11-21T10:34:35;18.27;;;10.43;;
48795;SDS011;34607;48.520;-1.330;2023-11-21T10:37:10;5.45;;;4.25;;
48795;SDS011;34607;48.520;-1.330;2023-11-21T10:39:38;8.55;;;6.25;;
48795;SDS011;34607;48.520;-1.330;2023-11-21T10:42:09;5.63;;;4.15;;
48795;SDS011;34607;48.520;-1.330;2023-11-21T10:44:36;6.90;;;4.38;;
48795;SDS011;34607;48.520;-1.330;2023-11-21T10:47:03;8.00;;;4.38;;
48795;SDS011;34607;48.520;-1.330;2023-11-21T10:49:30;7.15;;;3.38;;
48795;SDS011;34607;48.520;-1.330;2023-11-21T10:51:57;6.72;;;3.80;;
48795;SDS011;34607;48.520;-1.330;2023-11-21T10:54:25;8.05;;;4.18;;
48795;SDS011;34607;48.520;-1.330;2023-11-21T10:56:53;6.90;;;4.47;;
48795;SDS011;34607;48.520;-1.330;2023-11-21T10:59:25;8.02;;;5.15;;
48795;SDS011;34607;48.520;-1.330;2023-11-21T11:01:57;6.43;;;4.65;;
48795;SDS011;34607;48.520;-1.330;2023-11-21T11:04:27;5.13;;;4.63;;
48795;SDS011;34607;48.520;-1.330;2023-11-21T11:06:55;10.65;;;8.45;;
48795;SDS011;34607;48.520;-1.330;2023-11-21T11:09:24;8.77;;;6.18;;
48795;SDS011;34607;48.520;-1.330;2023-11-21T11:11:52;14.05;;;8.88;;
48795;SDS011;34607;48.520;-1.330;2023-11-21T11:14:20;6.72;;;3.50;;
48795;SDS011;34607;48.520;-1.330;2023-11-21T11:16:53;4.03;;;3.33;;
48795;SDS011;34607;48.520;-1.330;2023-11-21T11:19:22;5.30;;;3.17;;
48795;SDS011;34607;48.520;-1.330;2023-11-21T11:21:51;6.47;;;2.85;;
48795;SDS011;34607;48.520;-1.330;2023-11-21T11:27:33;7.43;;;3.40;;
48795;SDS011;34607;48.520;-1.330;2023-11-21T11:30:10;9.65;;;3.83;;
48795;SDS011;34607;48.520;-1.330;2023-11-21T11:32:52;3.20;;;2.90;;
48795;SDS011;34607;48.520;-1.330;2023-11-21T11:35:30;5.43;;;4.10;;
48795;SDS011;34607;48.520;-1.330;2023-11-21T11:38:04;9.13;;;4.20;;
48795;SDS011;34607;48.520;-1.330;2023-11-21T11:40:39;7.75;;;5.20;;
48795;SDS011;34607;48.520;-1.330;2023-11-21T11:43:07;7.90;;;5.22;;
48795;SDS011;34607;48.520;-1.330;2023-11-21T11:45:35;7.15;;;5.15;;
48795;SDS011;34607;48.520;-1.330;2023-11-21T11:48:08;5.95;;;4.82;;
48795;SDS011;34607;48.520;-1.330;2023-11-21T11:50:41;8.45;;;4.38;;
48795;SDS011;34607;48.520;-1.330;2023-11-21T11:53:28;5.70;;;3.95;;
48795;SDS011;34607;48.520;-1.330;2023-11-21T11:56:24;4.83;;;2.70;;
48795;SDS011;34607;48.520;-1.330;2023-11-21T11:58:53;4.07;;;2.92;;
48795;SDS011;34607;48.520;-1.330;2023-11-21T12:01:21;5.55;;;2.30;;
48795;SDS011;34607;48.520;-1.330;2023-11-21T12:06:56;4.18;;;2.55;;
48795;SDS011;34607;48.520;-1.330;2023-11-21T12:09:28;5.68;;;3.72;;
48795;SDS011;34607;48.520;-1.330;2023-11-21T12:11:56;5.57;;;4.28;;
48795;SDS011;34607;48.520;-1.330;2023-11-21T12:14:23;3.95;;;3.00;;
48795;SDS011;34607;48.520;-1.330;2023-11-21T12:16:50;4.35;;;3.95;;
48795;SDS011;34607;48.520;-1.330;2023-11-21T12:19:18;5.53;;;3.55;;
48795;SDS011;34607;48.520;-1.330;2023-11-21T12:21:49;4.97;;;4.05;;
48795;SDS011;34607;48.520;-1.330;2023-11-21T12:24:17;6.03;;;4.57;;
48795;SDS011;34607;48.520;-1.330;2023-11-21T12:26:44;7.45;;;3.88;;
48795;SDS011;34607;48.520;-1.330;2023-11-21T12:29:11;4.78;;;4.07;;
48795;SDS011;34607;48.520;-1.330;2023-11-21T12:31:38;7.75;;;6.95;;
48795;SDS011;34607;48.520;-1.330;2023-11-21T12:34:06;6.55;;;4.00;;
48795;SDS011;34607;48.520;-1.330;2023-11-21T12:36:37;7.57;;;4.40;;
48795;SDS011;34607;48.520;-1.330;2023-11-21T12:39:05;7.43;;;2.70;;
48795;SDS011;34607;48.520;-1.330;2023-11-21T12:41:34;4.82;;;2.63;;
48795;SDS011;34607;48.520;-1.330;2023-11-21T12:44:01;5.07;;;3.63;;
48795;SDS011;34607;48.520;-1.330;2023-11-21T12:46:28;7.50;;;4.57;;
48795;SDS011;34607;48.520;-1.330;2023-11-21T12:48:58;3.80;;;3.00;;
48795;SDS011;34607;48.520;-1.330;2023-11-21T12:51:25;6.93;;;3.03;;
48795;SDS011;34607;48.520;-1.330;2023-11-21T12:53:52;7.28;;;3.33;;
48795;SDS011;34607;48.520;-1.330;2023-11-21T12:56:22;4.05;;;2.92;;
48795;SDS011;34607;48.520;-1.330;2023-11-21T12:58:49;3.15;;;2.80;;
48795;SDS011;34607;48.520;-1.330;2023-11-21T13:01:17;8.25;;;3.55;;
48795;SDS011;34607;48.520;-1.330;2023-11-21T13:03:47;4.53;;;2.25;;
48795;SDS011;34607;48.520;-1.330;2023-11-21T13:06:16;3.45;;;2.72;;
48795;SDS011;34607;48.520;-1.330;2023-11-21T13:08:44;3.35;;;2.17;;
48795;SDS011;34607;48.520;-1.330;2023-11-21T13:11:11;3.42;;;2.00;;
48795;SDS011;34607;48.520;-1.330;2023-11-21T13:13:41;4.53;;;1.95;;
48795;SDS011;34607;48.520;-1.330;2023-11-21T13:16:10;2.88;;;2.40;;
48795;SDS011;34607;48.520;-1.330;2023-11-21T13:18:38;2.90;;;1.98;;
48795;SDS011;34607;48.520;-1.330;2023-11-21T13:21:07;4.05;;;1.65;;
48795;SDS011;34607;48.520;-1.330;2023-11-21T13:23:39;6.97;;;1.40;;
48795;SDS011;34607;48.520;-1.330;2023-11-21T13:26:07;4.35;;;1.80;;
48795;SDS011;34607;48.520;-1.330;2023-11-21T13:28:34;3.30;;;1.95;;
48795;SDS011;34607;48.520;-1.330;2023-11-21T13:31:04;2.00;;;1.55;;
48795;SDS011;34607;48.520;-1.330;2023-11-21T13:33:46;4.00;;;1.90;;
48795;SDS011;34607;48.520;-1.330;2023-11-21T13:36:20;3.53;;;1.35;;
48795;SDS011;34607;48.520;-1.330;2023-11-21T13:38:48;4.18;;;2.10;;
48795;SDS011;34607;48.520;-1.330;2023-11-21T13:41:17;4.78;;;1.58;;
48795;SDS011;34607;48.520;-1.330;2023-11-21T13:43:45;2.95;;;2.15;;
48795;SDS011;34607;48.520;-1.330;2023-11-21T13:46:19;3.35;;;2.15;;
48795;SDS011;34607;48.520;-1.330;2023-11-21T13:48:48;2.88;;;1.42;;
48795;SDS011;34607;48.520;-1.330;2023-11-21T13:51:21;3.25;;;2.15;;
48795;SDS011;34607;48.520;-1.330;2023-11-21T13:53:56;5.20;;;2.20;;
48795;SDS011;34607;48.520;-1.330;2023-11-21T13:56:24;3.80;;;1.65;;
48795;SDS011;34607;48.520;-1.330;2023-11-21T13:58:54;3.08;;;1.25;;
48795;SDS011;34607;48.520;-1.330;2023-11-21T14:01:22;3.08;;;1.30;;
48795;SDS011;34607;48.520;-1.330;2023-11-21T14:04:20;2.92;;;2.30;;
48795;SDS011;34607;48.520;-1.330;2023-11-21T14:07:00;3.17;;;1.90;;
48795;SDS011;34607;48.520;-1.330;2023-11-21T14:09:45;2.55;;;1.40;;
48795;SDS011;34607;48.520;-1.330;2023-11-21T14:12:14;3.83;;;1.67;;
48795;SDS011;34607;48.520;-1.330;2023-11-21T14:14:41;1.90;;;1.50;;
48795;SDS011;34607;48.520;-1.330;2023-11-21T14:17:10;2.20;;;1.70;;
48795;SDS011;34607;48.520;-1.330;2023-11-21T14:19:38;3.42;;;1.85;;
48795;SDS011;34607;48.520;-1.330;2023-11-21T14:22:08;4.18;;;1.58;;
48795;SDS011;34607;48.520;-1.330;2023-11-21T14:24:36;2.28;;;1.40;;
48795;SDS011;34607;48.520;-1.330;2023-11-21T14:27:09;2.90;;;2.20;;
48795;SDS011;34607;48.520;-1.330;2023-11-21T14:29:36;3.33;;;1.60;;
48795;SDS011;34607;48.520;-1.330;2023-11-21T14:32:05;5.63;;;3.92;;
48795;SDS011;34607;48.520;-1.330;2023-11-21T14:34:34;5.53;;;4.22;;
48795;SDS011;34607;48.520;-1.330;2023-11-21T14:37:02;6.68;;;5.45;;
48795;SDS011;34607;48.520;-1.330;2023-11-21T14:39:29;5.18;;;3.95;;
48795;SDS011;34607;48.520;-1.330;2023-11-21T14:42:00;2.70;;;2.45;;
48795;SDS011;34607;48.520;-1.330;2023-11-21T14:44:28;6.65;;;2.35;;
48795;SDS011;34607;48.520;-1.330;2023-11-21T14:47:00;3.55;;;2.00;;
48795;SDS011;34607;48.520;-1.330;2023-11-21T14:49:32;3.13;;;1.67;;
48795;SDS011;34607;48.520;-1.330;2023-11-21T14:52:14;1.75;;;1.33;;
48795;SDS011;34607;48.520;-1.330;2023-11-21T14:54:56;3.85;;;2.42;;
48795;SDS011;34607;48.520;-1.330;2023-11-21T14:57:44;5.28;;;3.08;;
48795;SDS011;34607;48.520;-1.330;2023-11-21T15:00:15;5.20;;;2.75;;
48795;SDS011;34607;48.520;-1.330;2023-11-21T15:02:57;1.75;;;1.60;;
48795;SDS011;34607;48.520;-1.330;2023-11-21T15:05:23;2.60;;;1.70;;
48795;SDS011;34607;48.520;-1.330;2023-11-21T15:07:52;3.00;;;2.17;;
48795;SDS011;34607;48.520;-1.330;2023-11-21T15:10:21;2.47;;;2.03;;
48795;SDS011;34607;48.520;-1.330;2023-11-21T15:12:57;3.08;;;2.65;;
48795;SDS011;34607;48.520;-1.330;2023-11-21T15:15:24;4.97;;;2.33;;
48795;SDS011;34607;48.520;-1.330;2023-11-21T15:17:50;3.65;;;2.15;;
48795;SDS011;34607;48.520;-1.330;2023-11-21T15:20:17;5.35;;;2.85;;
48795;SDS011;34607;48.520;-1.330;2023-11-21T15:22:46;3.15;;;2.53;;
48795;SDS011;34607;48.520;-1.330;2023-11-21T15:25:14;5.15;;;2.53;;
48795;SDS011;34607;48.520;-1.330;2023-11-21T15:27:41;5.50;;;3.22;;
48795;SDS011;34607;48.520;-1.330;2023-11-21T15:30:09;4.38;;;2.05;;
48795;SDS011;34607;48.520;-1.330;2023-11-21T15:32:36;8.30;;;3.63;;
48795;SDS011;34607;48.520;-1.330;2023-11-21T15:35:05;6.75;;;4.00;;
48795;SDS011;34607;48.520;-1.330;2023-11-21T15:37:35;5.50;;;2.97;;
48795;SDS011;34607;48.520;-1.330;2023-11-21T15:40:02;6.82;;;2.55;;
48795;SDS011;34607;48.520;-1.330;2023-11-21T15:42:32;6.00;;;3.00;;
48795;SDS011;34607;48.520;-1.330;2023-11-21T15:44:59;4.15;;;2.17;;
48795;SDS011;34607;48.520;-1.330;2023-11-21T15:47:26;4.78;;;2.38;;
48795;SDS011;34607;48.520;-1.330;2023-11-21T15:49:54;5.32;;;2.42;;
48795;SDS011;34607;48.520;-1.330;2023-11-21T15:52:20;5.25;;;3.33;;
48795;SDS011;34607;48.520;-1.330;2023-11-21T15:54:48;6.10;;;3.90;;
48795;SDS011;34607;48.520;-1.330;2023-11-21T15:57:15;9.10;;;4.03;;
48795;SDS011;34607;48.520;-1.330;2023-11-21T15:59:44;7.07;;;3.95;;
48795;SDS011;34607;48.520;-1.330;2023-11-21T16:02:11;7.72;;;3.60;;
48795;SDS011;34607;48.520;-1.330;2023-11-21T16:04:40;5.20;;;3.33;;
48795;SDS011;34607;48.520;-1.330;2023-11-21T16:07:07;5.13;;;2.53;;
48795;SDS011;34607;48.520;-1.330;2023-11-21T16:09:36;8.10;;;3.63;;
48795;SDS011;34607;48.520;-1.330;2023-11-21T16:12:05;6.03;;;4.18;;
48795;SDS011;34607;48.520;-1.330;2023-11-21T16:14:33;5.15;;;3.80;;
48795;SDS011;34607;48.520;-1.330;2023-11-21T16:17:05;7.07;;;4.28;;
48795;SDS011;34607;48.520;-1.330;2023-11-21T16:19:33;6.28;;;2.88;;
48795;SDS011;34607;48.520;-1.330;2023-11-21T16:22:00;5.50;;;3.78;;
48795;SDS011;34607;48.520;-1.330;2023-11-21T16:24:27;12.77;;;4.70;;
48795;SDS011;34607;48.520;-1.330;2023-11-21T16:26:55;10.50;;;3.92;;
48795;SDS011;34607;48.520;-1.330;2023-11-21T16:29:23;7.43;;;3.65;;
48795;SDS011;34607;48.520;-1.330;2023-11-21T16:31:50;5.05;;;4.30;;
48795;SDS011;34607;48.520;-1.330;2023-11-21T16:34:21;4.10;;;2.92;;
48795;SDS011;34607;48.520;-1.330;2023-11-21T16:36:48;6.97;;;4.07;;
48795;SDS011;34607;48.520;-1.330;2023-11-21T16:39:15;5.45;;;3.45;;
48795;SDS011;34607;48.520;-1.330;2023-11-21T16:41:44;12.45;;;4.30;;
48795;SDS011;34607;48.520;-1.330;2023-11-21T16:44:12;11.68;;;4.28;;
48795;SDS011;34607;48.520;-1.330;2023-11-21T16:46:42;7.15;;;4.50;;
48795;SDS011;34607;48.520;-1.330;2023-11-21T16:49:12;4.93;;;3.67;;
48795;SDS011;34607;48.520;-1.330;2023-11-21T16:51:40;12.20;;;7.07;;
48795;SDS011;34607;48.520;-1.330;2023-11-21T16:54:09;8.95;;;6.15;;
48795;SDS011;34607;48.520;-1.330;2023-11-21T16:56:36;8.68;;;5.68;;
48795;SDS011;34607;48.520;-1.330;2023-11-21T16:59:03;6.03;;;4.43;;
48795;SDS011;34607;48.520;-1.330;2023-11-21T17:01:30;8.13;;;5.13;;
48795;SDS011;34607;48.520;-1.330;2023-11-21T17:03:57;7.38;;;4.75;;
48795;SDS011;34607;48.520;-1.330;2023-11-21T17:06:24;11.10;;;4.32;;
48795;SDS011;34607;48.520;-1.330;2023-11-21T17:08:53;4.70;;;3.00;;
48795;SDS011;34607;48.520;-1.330;2023-11-21T17:11:21;6.03;;;3.65;;
48795;SDS011;34607;48.520;-1.330;2023-11-21T17:13:48;4.90;;;3.83;;
48795;SDS011;34607;48.520;-1.330;2023-11-21T17:16:16;6.18;;;4.43;;
48795;SDS011;34607;48.520;-1.330;2023-11-21T17:18:43;11.80;;;8.07;;
48795;SDS011;34607;48.520;-1.330;2023-11-21T17:21:10;6.97;;;5.28;;
48795;SDS011;34607;48.520;-1.330;2023-11-21T17:23:37;9.85;;;4.22;;
48795;SDS011;34607;48.520;-1.330;2023-11-21T17:26:05;8.48;;;5.28;;
48795;SDS011;34607;48.520;-1.330;2023-11-21T17:28:33;7.78;;;4.50;;
48795;SDS011;34607;48.520;-1.330;2023-11-21T17:31:00;6.80;;;4.28;;
48795;SDS011;34607;48.520;-1.330;2023-11-21T17:33:27;5.30;;;3.50;;
48795;SDS011;34607;48.520;-1.330;2023-11-21T17:35:54;6.30;;;3.50;;
48795;SDS011;34607;48.520;-1.330;2023-11-21T17:38:21;6.40;;;2.72;;
48795;SDS011;34607;48.520;-1.330;2023-11-21T17:40:48;4.50;;;2.60;;
48795;SDS011;34607;48.520;-1.330;2023-11-21T17:43:17;8.40;;;5.60;;
48795;SDS011;34607;48.520;-1.330;2023-11-21T17:45:44;6.22;;;3.70;;
48795;SDS011;34607;48.520;-1.330;2023-11-21T17:48:12;6.93;;;5.85;;
48795;SDS011;34607;48.520;-1.330;2023-11-21T17:50:39;8.60;;;6.28;;
48795;SDS011;34607;48.520;-1.330;2023-11-21T17:53:07;5.15;;;3.10;;
48795;SDS011;34607;48.520;-1.330;2023-11-21T17:55:34;8.35;;;4.13;;
48795;SDS011;34607;48.520;-1.330;2023-11-21T17:58:01;4.43;;;3.40;;
48795;SDS011;34607;48.520;-1.330;2023-11-21T18:00:29;6.47;;;3.80;;
48795;SDS011;34607;48.520;-1.330;2023-11-21T18:02:56;8.50;;;4.90;;
48795;SDS011;34607;48.520;-1.330;2023-11-21T18:05:24;4.78;;;3.20;;
48795;SDS011;34607;48.520;-1.330;2023-11-21T18:07:51;7.45;;;4.10;;
48795;SDS011;34607;48.520;-1.330;2023-11-21T18:10:18;3.38;;;3.08;;
48795;SDS011;34607;48.520;-1.330;2023-11-21T18:12:46;6.00;;;4.18;;
48795;SDS011;34607;48.520;-1.330;2023-11-21T18:15:13;5.13;;;4.30;;
48795;SDS011;34607;48.520;-1.330;2023-11-21T18:17:44;5.43;;;3.97;;
48795;SDS011;34607;48.520;-1.330;2023-11-21T18:20:11;8.35;;;4.32;;
48795;SDS011;34607;48.520;-1.330;2023-11-21T18:22:38;13.98;;;6.75;;
48795;SDS011;34607;48.520;-1.330;2023-11-21T18:25:05;11.00;;;8.38;;
48795;SDS011;34607;48.520;-1.330;2023-11-21T18:27:33;15.95;;;9.85;;
48795;SDS011;34607;48.520;-1.330;2023-11-21T18:30:00;8.48;;;5.78;;
48795;SDS011;34607;48.520;-1.330;2023-11-21T18:32:29;7.22;;;3.90;;
48795;SDS011;34607;48.520;-1.330;2023-11-21T18:34:57;9.15;;;4.07;;
48795;SDS011;34607;48.520;-1.330;2023-11-21T18:37:24;5.85;;;3.95;;
48795;SDS011;34607;48.520;-1.330;2023-11-21T18:39:51;6.90;;;5.38;;
48795;SDS011;34607;48.520;-1.330;2023-11-21T18:42:18;5.40;;;4.80;;
48795;SDS011;34607;48.520;-1.330;2023-11-21T18:44:47;9.45;;;6.47;;
48795;SDS011;34607;48.520;-1.330;2023-11-21T18:47:14;7.95;;;5.28;;
48795;SDS011;34607;48.520;-1.330;2023-11-21T18:49:41;5.57;;;4.72;;
48795;SDS011;34607;48.520;-1.330;2023-11-21T18:52:10;7.05;;;6.38;;
48795;SDS011;34607;48.520;-1.330;2023-11-21T18:54:40;6.75;;;4.38;;
48795;SDS011;34607;48.520;-1.330;2023-11-21T18:57:07;11.15;;;6.22;;
48795;SDS011;34607;48.520;-1.330;2023-11-21T18:59:35;8.38;;;5.38;;
48795;SDS011;34607;48.520;-1.330;2023-11-21T19:02:03;7.00;;;4.75;;
48795;SDS011;34607;48.520;-1.330;2023-11-21T19:04:33;9.07;;;5.45;;
48795;SDS011;34607;48.520;-1.330;2023-11-21T19:07:00;7.55;;;5.22;;
48795;SDS011;34607;48.520;-1.330;2023-11-21T19:09:29;9.25;;;5.85;;
48795;SDS011;34607;48.520;-1.330;2023-11-21T19:11:56;8.00;;;5.82;;
48795;SDS011;34607;48.520;-1.330;2023-11-21T19:14:23;10.98;;;6.00;;
48795;SDS011;34607;48.520;-1.330;2023-11-21T19:16:50;7.32;;;5.88;;
48795;SDS011;34607;48.520;-1.330;2023-11-21T19:19:17;8.20;;;5.82;;
48795;SDS011;34607;48.520;-1.330;2023-11-21T19:21:45;11.95;;;8.82;;
48795;SDS011;34607;48.520;-1.330;2023-11-21T19:24:12;5.63;;;4.90;;
48795;SDS011;34607;48.520;-1.330;2023-11-21T19:26:40;8.73;;;6.22;;
48795;SDS011;34607;48.520;-1.330;2023-11-21T19:29:07;9.48;;;6.00;;
48795;SDS011;34607;48.520;-1.330;2023-11-21T19:31:34;10.32;;;6.18;;
48795;SDS011;34607;48.520;-1.330;2023-11-21T19:34:02;7.25;;;6.00;;
48795;SDS011;34607;48.520;-1.330;2023-11-21T19:36:30;7.30;;;5.78;;
48795;SDS011;34607;48.520;-1.330;2023-11-21T19:38:57;9.98;;;7.85;;
48795;SDS011;34607;48.520;-1.330;2023-11-21T19:41:24;6.97;;;6.28;;
48795;SDS011;34607;48.520;-1.330;2023-11-21T19:43:54;13.57;;;6.50;;
48795;SDS011;34607;48.520;-1.330;2023-11-21T19:46:24;11.55;;;9.65;;
48795;SDS011;34607;48.520;-1.330;2023-11-21T19:48:51;13.20;;;10.75;;
48795;SDS011;34607;48.520;-1.330;2023-11-21T19:51:18;9.63;;;5.93;;
48795;SDS011;34607;48.520;-1.330;2023-11-21T19:53:47;15.77;;;6.03;;
48795;SDS011;34607;48.520;-1.330;2023-11-21T19:56:14;6.05;;;5.45;;
48795;SDS011;34607;48.520;-1.330;2023-11-21T19:58:41;8.88;;;5.60;;
48795;SDS011;34607;48.520;-1.330;2023-11-21T20:01:09;7.35;;;6.30;;
48795;SDS011;34607;48.520;-1.330;2023-11-21T20:03:36;8.88;;;7.32;;
48795;SDS011;34607;48.520;-1.330;2023-11-21T20:06:04;8.43;;;7.55;;
48795;SDS011;34607;48.520;-1.330;2023-11-21T20:08:31;7.53;;;6.68;;
48795;SDS011;34607;48.520;-1.330;2023-11-21T20:10:59;15.10;;;8.82;;
48795;SDS011;34607;48.520;-1.330;2023-11-21T20:13:26;11.98;;;9.68;;
48795;SDS011;34607;48.520;-1.330;2023-11-21T20:15:54;18.30;;;13.85;;
48795;SDS011;34607;48.520;-1.330;2023-11-21T20:18:22;12.68;;;11.10;;
48795;SDS011;34607;48.520;-1.330;2023-11-21T20:20:49;7.93;;;6.78;;
48795;SDS011;34607;48.520;-1.330;2023-11-21T20:23:16;9.15;;;7.63;;
48795;SDS011;34607;48.520;-1.330;2023-11-21T20:25:45;10.20;;;7.88;;
48795;SDS011;34607;48.520;-1.330;2023-11-21T20:28:12;10.30;;;7.32;;
48795;SDS011;34607;48.520;-1.330;2023-11-21T20:30:39;9.65;;;8.48;;
48795;SDS011;34607;48.520;-1.330;2023-11-21T20:33:06;7.05;;;5.85;;
48795;SDS011;34607;48.520;-1.330;2023-11-21T20:35:35;8.35;;;6.95;;
48795;SDS011;34607;48.520;-1.330;2023-11-21T20:38:02;12.02;;;6.50;;
48795;SDS011;34607;48.520;-1.330;2023-11-21T20:40:29;9.25;;;7.00;;
48795;SDS011;34607;48.520;-1.330;2023-11-21T20:42:57;9.23;;;7.95;;
48795;SDS011;34607;48.520;-1.330;2023-11-21T20:45:28;9.98;;;7.07;;
48795;SDS011;34607;48.520;-1.330;2023-11-21T20:47:55;11.45;;;8.85;;
48795;SDS011;34607;48.520;-1.330;2023-11-21T20:50:22;9.15;;;6.80;;
48795;SDS011;34607;48.520;-1.330;2023-11-21T20:52:51;12.63;;;9.00;;
48795;SDS011;34607;48.520;-1.330;2023-11-21T20:55:18;7.25;;;6.22;;
48795;SDS011;34607;48.520;-1.330;2023-11-21T20:57:46;8.02;;;6.15;;
48795;SDS011;34607;48.520;-1.330;2023-11-21T21:00:13;9.40;;;8.10;;
48795;SDS011;34607;48.520;-1.330;2023-11-21T21:02:43;8.88;;;7.20;;
48795;SDS011;34607;48.520;-1.330;2023-11-21T21:05:12;7.18;;;6.35;;
48795;SDS011;34607;48.520;-1.330;2023-11-21T21:07:41;13.05;;;8.35;;
48795;SDS011;34607;48.520;-1.330;2023-11-21T21:10:10;9.43;;;7.28;;
48795;SDS011;34607;48.520;-1.330;2023-11-21T21:12:39;8.68;;;7.82;;
48795;SDS011;34607;48.520;-1.330;2023-11-21T21:15:07;10.20;;;6.78;;
48795;SDS011;34607;48.520;-1.330;2023-11-21T21:17:37;8.10;;;7.40;;
48795;SDS011;34607;48.520;-1.330;2023-11-21T21:20:05;7.57;;;6.20;;
48795;SDS011;34607;48.520;-1.330;2023-11-21T21:22:35;8.40;;;7.15;;
48795;SDS011;34607;48.520;-1.330;2023-11-21T21:25:03;8.40;;;7.43;;
48795;SDS011;34607;48.520;-1.330;2023-11-21T21:27:32;9.85;;;7.93;;
48795;SDS011;34607;48.520;-1.330;2023-11-21T21:29:59;8.48;;;7.57;;
48795;SDS011;34607;48.520;-1.330;2023-11-21T21:32:26;9.90;;;7.97;;
48795;SDS011;34607;48.520;-1.330;2023-11-21T21:34:53;8.40;;;7.22;;
48795;SDS011;34607;48.520;-1.330;2023-11-21T21:37:20;12.35;;;7.43;;
48795;SDS011;34607;48.520;-1.330;2023-11-21T21:39:47;8.55;;;7.28;;
48795;SDS011;34607;48.520;-1.330;2023-11-21T21:42:15;10.57;;;8.00;;
48795;SDS011;34607;48.520;-1.330;2023-11-21T21:44:43;10.70;;;7.28;;
48795;SDS011;34607;48.520;-1.330;2023-11-21T21:47:10;10.13;;;7.72;;
48795;SDS011;34607;48.520;-1.330;2023-11-21T21:49:37;8.98;;;7.85;;
48795;SDS011;34607;48.520;-1.330;2023-11-21T21:52:04;7.97;;;7.05;;
48795;SDS011;34607;48.520;-1.330;2023-11-21T21:54:31;6.95;;;6.18;;
48795;SDS011;34607;48.520;-1.330;2023-11-21T21:56:58;7.75;;;6.43;;
48795;SDS011;34607;48.520;-1.330;2023-11-21T21:59:25;7.93;;;7.03;;
48795;SDS011;34607;48.520;-1.330;2023-11-21T22:01:54;10.30;;;9.02;;
48795;SDS011;34607;48.520;-1.330;2023-11-21T22:04:21;9.98;;;8.30;;
48795;SDS011;34607;48.520;-1.330;2023-11-21T22:06:49;8.23;;;7.30;;
48795;SDS011;34607;48.520;-1.330;2023-11-21T22:09:16;7.63;;;6.53;;
48795;SDS011;34607;48.520;-1.330;2023-11-21T22:11:44;7.57;;;6.28;;
48795;SDS011;34607;48.520;-1.330;2023-11-21T22:14:11;6.50;;;5.85;;
48795;SDS011;34607;48.520;-1.330;2023-11-21T22:16:38;7.10;;;6.25;;
